VALLADOLID / VILLANUBLA current weather conditions

sailwx.info

Wind from 090 at 4 knots

Air temperature 21.0° C
Dewpoint 12.0° C

Last reported at 2015-Aug-04 08:30 UTC.
Time now 2015-Aug-04 09:43 UTC

Location: N 41°43' W 004°51'.
View on Google Maps.

See reports from other nearby stations

  
Tides and Currents Weather Stations Pressure Air Temp Water Temp Dewpoint Dewpoint Depression Visibility Wind Speed Wind Dir Waves Ship Positions
date/time (UTC)wind fromknots sea level pressurealtimeterstation pressurevisibilityair tempwater tempwave heightnotes
2015-Aug-04 08:30 090 4 21.0
2015-Aug-04 08:00 090 6 20.0
2015-Aug-04 07:30 080 7 18.0
2015-Aug-04 07:00 060 3 17.0
2015-Aug-04 06:30 040 3 16.0
2015-Aug-04 06:00 040 4 14.0
2015-Aug-04 05:30 020 4 13.0
2015-Aug-04 05:00 030 3 14.0
2015-Aug-03 19:30 280 10 28.0
2015-Aug-03 19:00 290 12 29.0
2015-Aug-03 18:30 290 13 30.0
2015-Aug-03 18:00 280 12 31.0
2015-Aug-03 17:30 280 11 32.0
2015-Aug-03 17:00 290 12 33.0
2015-Aug-03 16:30 240 14 5.433.0
2015-Aug-03 16:00 220 10 gusting 22 5.434.0
2015-Aug-03 15:30 230 13 5.433.0
2015-Aug-03 15:00 260 10 gusting 20 34.0
2015-Aug-03 14:30 240 12 33.0
2015-Aug-03 14:00 260 10 32.0
2015-Aug-03 13:30 240 12 32.0
2015-Aug-03 13:00 230 9 32.0
2015-Aug-03 12:30 220 7 32.0
2015-Aug-03 12:00 250 7 31.0
2015-Aug-03 11:30 240 7 31.0
2015-Aug-03 11:00 210 4 30.0
2015-Aug-03 10:30 170 3 29.0
2015-Aug-03 10:00 170 3 29.0
2015-Aug-03 09:30 27.0
2015-Aug-03 09:00 180 1 27.0
2015-Aug-03 08:30 26.0
2015-Aug-03 08:00 190 1 25.0
2015-Aug-03 07:30 210 1 24.0
2015-Aug-03 07:00 240 3 22.0
2015-Aug-03 06:30 240 3 19.0
2015-Aug-03 06:00 250 4 16.0
2015-Aug-03 05:30 250 2 16.0
2015-Aug-03 05:00 260 1 16.0
2015-Aug-02 19:30 230 6 28.0
2015-Aug-02 19:00 240 9 30.0
2015-Aug-02 18:30 240 10 31.0
2015-Aug-02 18:00 260 12 32.0
2015-Aug-02 17:30 270 10 32.0
2015-Aug-02 17:00 220 13 33.0
2015-Aug-02 16:30 260 12 33.0
2015-Aug-02 16:00 250 11 33.0
2015-Aug-02 15:30 250 10 33.0
2015-Aug-02 15:00 260 12 gusting 25 33.0
2015-Aug-02 14:30 220 8 32.0
2015-Aug-02 14:00 240 10 32.0
2015-Aug-02 13:30 250 11 31.0
2015-Aug-02 13:00 230 11 gusting 20 31.0
2015-Aug-02 12:30 230 12 gusting 22 31.0
2015-Aug-02 12:00 230 13 30.0
2015-Aug-02 11:30 230 11 30.0
2015-Aug-02 11:00 240 11 29.0
2015-Aug-02 10:30 190 7 28.0
2015-Aug-02 10:00 200 7 27.0
2015-Aug-02 09:30 190 7 26.0
2015-Aug-02 09:00 180 11 24.0